Terminal Aerodrome Forecast
Issued by NWS

Current Version | Previous Version | Text Only | Print | Product List | Glossary On
Versions: 1 2 3 4 5 6 7 8 9 10 11 12 13 14 15 16 17 18 19 20 21 22 23 24 25
000
FTUS41 KOKX 210500 RRA
TAFHPN
TAF
KHPN 210547Z 2106/2206 VRB03KT P6SM FEW045 BKN130
      TEMPO 2111/2113 -RA BKN040
     FM211500 14004KT P6SM SCT035 OVC080
      TEMPO 2115/2119 -RA BKN035
     FM212300 VRB04KT 6SM -RADZ BKN035
      AMD NOT SKED=

USA.gov is the U.S. government's official web portal to all federal, state and local government web resources and services.